sensor_id;sensor_type;location;lat;lon;timestamp;pressure;altitude;pressure_sealevel;temperature;humidity
65131;BME280;51709;54.912;8.316;2023-01-26T00:04:12;102152.50;;;5.20;84.28
65131;BME280;51709;54.912;8.316;2023-01-26T00:09:33;102146.88;;;5.35;83.93
65131;BME280;51709;54.912;8.316;2023-01-26T00:14:54;102146.97;;;5.40;84.05
65131;BME280;51709;54.912;8.316;2023-01-26T00:20:16;102136.97;;;5.49;83.95
65131;BME280;51709;54.912;8.316;2023-01-26T00:25:37;102141.41;;;5.58;83.82
65131;BME280;51709;54.912;8.316;2023-01-26T00:31:05;102144.03;;;5.61;83.84
65131;BME280;51709;54.912;8.316;2023-01-26T00:36:26;102144.03;;;5.61;84.03
65131;BME280;51709;54.912;8.316;2023-01-26T00:41:47;102136.47;;;5.64;83.92
65131;BME280;51709;54.912;8.316;2023-01-26T00:47:29;102135.66;;;5.67;84.08
65131;BME280;51709;54.912;8.316;2023-01-26T00:52:49;102141.66;;;5.69;84.24
65131;BME280;51709;54.912;8.316;2023-01-26T00:58:10;102123.00;;;5.71;84.24
65131;BME280;51709;54.912;8.316;2023-01-26T01:03:31;102131.59;;;5.77;84.10
65131;BME280;51709;54.912;8.316;2023-01-26T01:08:51;102132.47;;;5.79;84.22
65131;BME280;51709;54.912;8.316;2023-01-26T01:14:13;102139.31;;;5.80;84.34
65131;BME280;51709;54.912;8.316;2023-01-26T01:19:33;102150.47;;;5.85;84.17
65131;BME280;51709;54.912;8.316;2023-01-26T01:24:54;102143.63;;;5.84;84.38
65131;BME280;51709;54.912;8.316;2023-01-26T01:30:16;102145.41;;;5.88;84.19
65131;BME280;51709;54.912;8.316;2023-01-26T01:35:38;102142.91;;;5.90;84.20
65131;BME280;51709;54.912;8.316;2023-01-26T01:40:59;102144.56;;;5.88;84.24
65131;BME280;51709;54.912;8.316;2023-01-26T01:46:24;102159.03;;;5.90;84.25
65131;BME280;51709;54.912;8.316;2023-01-26T01:51:51;102159.06;;;5.92;84.19
65131;BME280;51709;54.912;8.316;2023-01-26T01:57:17;102165.22;;;6.01;84.05
65131;BME280;51709;54.912;8.316;2023-01-26T02:02:57;102170.38;;;6.03;83.92
65131;BME280;51709;54.912;8.316;2023-01-26T02:08:38;102165.31;;;6.06;83.83
65131;BME280;51709;54.912;8.316;2023-01-26T02:13:59;102173.84;;;6.08;83.82
65131;BME280;51709;54.912;8.316;2023-01-26T02:19:31;102166.19;;;6.07;83.81
65131;BME280;51709;54.912;8.316;2023-01-26T02:25:03;102155.16;;;6.08;83.87
65131;BME280;51709;54.912;8.316;2023-01-26T02:30:28;102158.53;;;6.05;84.02
65131;BME280;51709;54.912;8.316;2023-01-26T02:35:48;102164.25;;;5.96;84.28
65131;BME280;51709;54.912;8.316;2023-01-26T02:41:14;102159.84;;;5.88;84.66
65131;BME280;51709;54.912;8.316;2023-01-26T02:46:59;102168.31;;;5.88;84.87
65131;BME280;51709;54.912;8.316;2023-01-26T02:52:25;102164.91;;;5.86;84.86
65131;BME280;51709;54.912;8.316;2023-01-26T02:57:57;102159.75;;;5.83;85.04
65131;BME280;51709;54.912;8.316;2023-01-26T03:03:22;102157.94;;;5.77;85.04
65131;BME280;51709;54.912;8.316;2023-01-26T03:08:44;102165.59;;;5.79;85.11
65131;BME280;51709;54.912;8.316;2023-01-26T03:14:04;102173.97;;;5.71;85.19
65131;BME280;51709;54.912;8.316;2023-01-26T03:19:25;102170.53;;;5.71;85.16
65131;BME280;51709;54.912;8.316;2023-01-26T03:25:04;102175.53;;;5.66;85.09
65131;BME280;51709;54.912;8.316;2023-01-26T03:30:51;102179.78;;;5.66;85.22
65131;BME280;51709;54.912;8.316;2023-01-26T03:36:13;102175.38;;;5.59;85.06
65131;BME280;51709;54.912;8.316;2023-01-26T03:41:34;102171.94;;;5.57;85.28
65131;BME280;51709;54.912;8.316;2023-01-26T03:47:14;102171.94;;;5.57;85.13
65131;BME280;51709;54.912;8.316;2023-01-26T03:52:53;102174.44;;;5.53;85.04
65131;BME280;51709;54.912;8.316;2023-01-26T03:58:34;102193.81;;;5.47;84.99
65131;BME280;51709;54.912;8.316;2023-01-26T04:03:55;102183.53;;;5.42;84.96
65131;BME280;51709;54.912;8.316;2023-01-26T04:09:37;102185.00;;;5.32;85.34
65131;BME280;51709;54.912;8.316;2023-01-26T04:14:59;102187.50;;;5.31;85.39
65131;BME280;51709;54.912;8.316;2023-01-26T04:20:38;102190.81;;;5.27;85.54
65131;BME280;51709;54.912;8.316;2023-01-26T04:26:18;102188.19;;;5.23;85.35
65131;BME280;51709;54.912;8.316;2023-01-26T04:31:40;102186.41;;;5.19;85.45
65131;BME280;51709;54.912;8.316;2023-01-26T04:37:02;102181.25;;;5.18;85.45
65131;BME280;51709;54.912;8.316;2023-01-26T04:42:35;102175.34;;;5.19;85.27
65131;BME280;51709;54.912;8.316;2023-01-26T04:47:57;102188.13;;;5.20;85.06
65131;BME280;51709;54.912;8.316;2023-01-26T04:53:18;102187.25;;;5.20;85.05
65131;BME280;51709;54.912;8.316;2023-01-26T04:58:39;102189.84;;;5.21;84.92
65131;BME280;51709;54.912;8.316;2023-01-26T05:04:01;102183.03;;;5.20;84.92
65131;BME280;51709;54.912;8.316;2023-01-26T05:09:24;102194.06;;;5.21;84.76
65131;BME280;51709;54.912;8.316;2023-01-26T05:15:03;102199.16;;;5.21;84.90
65131;BME280;51709;54.912;8.316;2023-01-26T05:20:37;102205.16;;;5.23;84.58
65131;BME280;51709;54.912;8.316;2023-01-26T05:26:08;102203.34;;;5.19;84.50
65131;BME280;51709;54.912;8.316;2023-01-26T05:31:46;102209.13;;;5.12;84.56
65131;BME280;51709;54.912;8.316;2023-01-26T05:37:07;102204.75;;;5.06;84.61
65131;BME280;51709;54.912;8.316;2023-01-26T05:42:31;102209.75;;;5.03;84.83
65131;BME280;51709;54.912;8.316;2023-01-26T05:48:14;102216.56;;;5.04;84.59
65131;BME280;51709;54.912;8.316;2023-01-26T05:53:37;102215.75;;;5.05;84.74
65131;BME280;51709;54.912;8.316;2023-01-26T05:58:58;102225.09;;;5.06;84.45
65131;BME280;51709;54.912;8.316;2023-01-26T06:04:19;102213.22;;;5.05;84.30
65131;BME280;51709;54.912;8.316;2023-01-26T06:09:45;102209.75;;;5.03;84.43
65131;BME280;51709;54.912;8.316;2023-01-26T06:15:29;102222.53;;;5.04;84.49
65131;BME280;51709;54.912;8.316;2023-01-26T06:20:49;102220.81;;;5.03;84.54
65131;BME280;51709;54.912;8.316;2023-01-26T06:26:10;102224.06;;;4.98;84.61
65131;BME280;51709;54.912;8.316;2023-01-26T06:31:35;102221.41;;;4.93;84.79
65131;BME280;51709;54.912;8.316;2023-01-26T06:36:57;102224.78;;;4.92;84.87
65131;BME280;51709;54.912;8.316;2023-01-26T06:42:23;102233.16;;;4.89;85.04
65131;BME280;51709;54.912;8.316;2023-01-26T06:47:45;102228.06;;;4.88;85.13
65131;BME280;51709;54.912;8.316;2023-01-26T06:53:28;102239.94;;;4.89;85.36
65131;BME280;51709;54.912;8.316;2023-01-26T06:59:08;102245.84;;;4.86;85.43
65131;BME280;51709;54.912;8.316;2023-01-26T07:04:50;102249.22;;;4.87;85.60
65131;BME280;51709;54.912;8.316;2023-01-26T07:10:11;102245.84;;;4.88;85.55
65131;BME280;51709;54.912;8.316;2023-01-26T07:15:32;102257.91;;;4.95;85.19
65131;BME280;51709;54.912;8.316;2023-01-26T07:20:53;102247.06;;;5.02;84.67
65131;BME280;51709;54.912;8.316;2023-01-26T07:26:13;102241.81;;;4.96;84.65
65131;BME280;51709;54.912;8.316;2023-01-26T07:31:34;102249.44;;;4.94;84.78
65131;BME280;51709;54.912;8.316;2023-01-26T07:36:55;102253.69;;;4.96;84.73
65131;BME280;51709;54.912;8.316;2023-01-26T07:42:15;102255.53;;;5.01;84.76
65131;BME280;51709;54.912;8.316;2023-01-26T07:47:41;102256.34;;;5.00;84.75
65131;BME280;51709;54.912;8.316;2023-01-26T07:53:02;102253.84;;;5.02;84.81
65131;BME280;51709;54.912;8.316;2023-01-26T07:58:22;102258.06;;;5.01;84.97
65131;BME280;51709;54.912;8.316;2023-01-26T08:03:42;102264.09;;;5.05;84.74
65131;BME280;51709;54.912;8.316;2023-01-26T08:09:04;102269.97;;;5.02;84.69
65131;BME280;51709;54.912;8.316;2023-01-26T08:14:25;102261.63;;;5.08;84.67
65131;BME280;51709;54.912;8.316;2023-01-26T08:20:04;102266.84;;;5.14;84.51
65131;BME280;51709;54.912;8.316;2023-01-26T08:25:25;102269.56;;;5.20;84.39
65131;BME280;51709;54.912;8.316;2023-01-26T08:30:45;102278.06;;;5.21;84.47
65131;BME280;51709;54.912;8.316;2023-01-26T08:36:10;102277.31;;;5.25;84.35
65131;BME280;51709;54.912;8.316;2023-01-26T08:41:31;102281.47;;;5.21;85.03
65131;BME280;51709;54.912;8.316;2023-01-26T08:46:52;102281.69;;;5.31;85.09
65131;BME280;51709;54.912;8.316;2023-01-26T08:52:13;102267.94;;;5.61;84.71
65131;BME280;51709;54.912;8.316;2023-01-26T08:57:34;102276.47;;;5.61;84.63
65131;BME280;51709;54.912;8.316;2023-01-26T09:02:59;102272.56;;;5.76;84.79
65131;BME280;51709;54.912;8.316;2023-01-26T09:08:20;102274.88;;;6.05;84.36
65131;BME280;51709;54.912;8.316;2023-01-26T09:13:40;102269.56;;;6.35;83.27
65131;BME280;51709;54.912;8.316;2023-01-26T09:19:02;102275.81;;;6.53;82.95
65131;BME280;51709;54.912;8.316;2023-01-26T09:24:23;102270.69;;;6.51;83.04
65131;BME280;51709;54.912;8.316;2023-01-26T09:29:43;102279.78;;;6.83;82.39
65131;BME280;51709;54.912;8.316;2023-01-26T09:35:04;102284.00;;;6.82;82.50
65131;BME280;51709;54.912;8.316;2023-01-26T09:40:36;102290.88;;;6.85;82.57
65131;BME280;51709;54.912;8.316;2023-01-26T09:46:11;102284.94;;;6.86;82.63
65131;BME280;51709;54.912;8.316;2023-01-26T09:51:49;102300.56;;;7.03;82.31
65131;BME280;51709;54.912;8.316;2023-01-26T09:57:34;102298.38;;;7.26;81.84
65131;BME280;51709;54.912;8.316;2023-01-26T10:03:17;102306.78;;;7.19;81.90
65131;BME280;51709;54.912;8.316;2023-01-26T10:08:42;102304.44;;;7.31;81.91
65131;BME280;51709;54.912;8.316;2023-01-26T10:14:13;102308.72;;;7.35;81.80
65131;BME280;51709;54.912;8.316;2023-01-26T10:19:39;102308.78;;;7.38;81.98
65131;BME280;51709;54.912;8.316;2023-01-26T10:25:01;102318.38;;;7.50;81.69
65131;BME280;51709;54.912;8.316;2023-01-26T10:30:22;102305.97;;;7.77;81.21
65131;BME280;51709;54.912;8.316;2023-01-26T10:35:43;102314.88;;;8.04;80.16
65131;BME280;51709;54.912;8.316;2023-01-26T10:46:36;102313.22;;;8.09;80.66
65131;BME280;51709;54.912;8.316;2023-01-26T10:52:06;102313.25;;;8.12;80.73
65131;BME280;51709;54.912;8.316;2023-01-26T10:57:29;102310.38;;;8.53;79.71
65131;BME280;51709;54.912;8.316;2023-01-26T11:02:54;102296.78;;;8.59;79.63
65131;BME280;51709;54.912;8.316;2023-01-26T11:08:37;102289.69;;;9.19;78.54
65131;BME280;51709;54.912;8.316;2023-01-26T11:14:13;102281.69;;;10.12;77.17
65131;BME280;51709;54.912;8.316;2023-01-26T11:19:48;102289.66;;;11.31;74.59
65131;BME280;51709;54.912;8.316;2023-01-26T11:25:16;102301.41;;;12.27;73.28
65131;BME280;51709;54.912;8.316;2023-01-26T11:36:58;102296.31;;;13.47;71.64
65131;BME280;51709;54.912;8.316;2023-01-26T11:42:31;102291.78;;;13.70;71.67
65131;BME280;51709;54.912;8.316;2023-01-26T11:48:13;102283.53;;;14.14;70.78
65131;BME280;51709;54.912;8.316;2023-01-26T11:53:56;102286.00;;;14.84;69.49
65131;BME280;51709;54.912;8.316;2023-01-26T12:04:50;102281.81;;;15.76;68.07
65131;BME280;51709;54.912;8.316;2023-01-26T12:10:12;102278.16;;;15.89;67.74
65131;BME280;51709;54.912;8.316;2023-01-26T12:15:37;102270.50;;;16.25;66.75
65131;BME280;51709;54.912;8.316;2023-01-26T12:21:02;102278.97;;;16.70;65.80
65131;BME280;51709;54.912;8.316;2023-01-26T12:26:31;102265.13;;;16.71;65.46
65131;BME280;51709;54.912;8.316;2023-01-26T12:49:35;102270.53;;;16.99;63.55
65131;BME280;51709;54.912;8.316;2023-01-26T12:55:00;102250.94;;;16.86;64.11
65131;BME280;51709;54.912;8.316;2023-01-26T13:00:29;102256.47;;;16.70;64.56
65131;BME280;51709;54.912;8.316;2023-01-26T13:06:00;102242.44;;;16.79;63.16
65131;BME280;51709;54.912;8.316;2023-01-26T13:11:42;102242.81;;;16.27;64.02
65131;BME280;51709;54.912;8.316;2023-01-26T13:22:38;102243.59;;;14.40;67.93
65131;BME280;51709;54.912;8.316;2023-01-26T13:28:01;102254.47;;;13.15;70.65
65131;BME280;51709;54.912;8.316;2023-01-26T13:33:23;102258.63;;;12.10;72.44
65131;BME280;51709;54.912;8.316;2023-01-26T13:38:57;102255.38;;;11.24;73.39
65131;BME280;51709;54.912;8.316;2023-01-26T13:44:40;102245.97;;;10.68;74.11
65131;BME280;51709;54.912;8.316;2023-01-26T13:50:20;102250.13;;;10.28;74.00
65131;BME280;51709;54.912;8.316;2023-01-26T13:55:42;102253.47;;;10.06;73.82
65131;BME280;51709;54.912;8.316;2023-01-26T14:01:06;102267.88;;;9.76;73.91
65131;BME280;51709;54.912;8.316;2023-01-26T14:06:32;102262.59;;;9.52;73.64
65131;BME280;51709;54.912;8.316;2023-01-26T14:12:01;102277.75;;;9.21;73.92
65131;BME280;51709;54.912;8.316;2023-01-26T14:17:28;102275.81;;;8.96;73.90
65131;BME280;51709;54.912;8.316;2023-01-26T14:23:13;102280.75;;;8.77;73.90
65131;BME280;51709;54.912;8.316;2023-01-26T14:28:35;102286.63;;;8.67;73.76
65131;BME280;51709;54.912;8.316;2023-01-26T14:33:57;102282.84;;;8.35;74.17
65131;BME280;51709;54.912;8.316;2023-01-26T14:39:19;102296.25;;;8.15;74.18
65131;BME280;51709;54.912;8.316;2023-01-26T14:44:40;102297.81;;;8.04;74.21
65131;BME280;51709;54.912;8.316;2023-01-26T14:50:18;102298.47;;;7.88;74.33
65131;BME280;51709;54.912;8.316;2023-01-26T14:55:43;102313.50;;;7.67;74.42
65131;BME280;51709;54.912;8.316;2023-01-26T15:01:04;102319.25;;;7.52;74.41
65131;BME280;51709;54.912;8.316;2023-01-26T15:06:26;102313.94;;;7.40;74.43
65131;BME280;51709;54.912;8.316;2023-01-26T15:11:55;102329.00;;;7.24;74.52
65131;BME280;51709;54.912;8.316;2023-01-26T15:17:37;102333.97;;;7.15;74.47
65131;BME280;51709;54.912;8.316;2023-01-26T15:22:58;102314.16;;;7.03;74.55
65131;BME280;51709;54.912;8.316;2023-01-26T15:28:22;102320.72;;;6.89;74.70
65131;BME280;51709;54.912;8.316;2023-01-26T15:33:48;102336.69;;;6.78;74.77
65131;BME280;51709;54.912;8.316;2023-01-26T15:39:11;102337.41;;;6.70;74.79
65131;BME280;51709;54.912;8.316;2023-01-26T15:44:32;102366.06;;;6.58;74.76
65131;BME280;51709;54.912;8.316;2023-01-26T15:49:53;102361.59;;;6.47;75.03
65131;BME280;51709;54.912;8.316;2023-01-26T15:55:19;102357.13;;;6.37;75.02
65131;BME280;51709;54.912;8.316;2023-01-26T16:00:40;102355.28;;;6.30;75.11
65131;BME280;51709;54.912;8.316;2023-01-26T16:06:01;102375.47;;;6.21;75.03
65131;BME280;51709;54.912;8.316;2023-01-26T16:11:27;102372.66;;;6.08;75.18
65131;BME280;51709;54.912;8.316;2023-01-26T16:16:48;102372.41;;;5.99;75.29
65131;BME280;51709;54.912;8.316;2023-01-26T16:22:10;102383.22;;;5.89;75.31
65131;BME280;51709;54.912;8.316;2023-01-26T16:27:31;102387.31;;;5.82;75.44
65131;BME280;51709;54.912;8.316;2023-01-26T16:32:52;102395.66;;;5.76;75.50
65131;BME280;51709;54.912;8.316;2023-01-26T16:38:12;102403.91;;;5.66;75.57
65131;BME280;51709;54.912;8.316;2023-01-26T16:43:32;102409.72;;;5.60;75.56
65131;BME280;51709;54.912;8.316;2023-01-26T16:48:53;102414.84;;;5.62;75.47
65131;BME280;51709;54.912;8.316;2023-01-26T16:54:13;102414.06;;;5.64;75.55
65131;BME280;51709;54.912;8.316;2023-01-26T16:59:34;102429.53;;;5.72;75.45
65131;BME280;51709;54.912;8.316;2023-01-26T17:04:55;102434.88;;;5.81;75.52
65131;BME280;51709;54.912;8.316;2023-01-26T17:10:16;102430.75;;;5.88;75.24
65131;BME280;51709;54.912;8.316;2023-01-26T17:15:36;102444.28;;;5.85;75.41
65131;BME280;51709;54.912;8.316;2023-01-26T17:21:01;102451.94;;;5.85;75.47
65131;BME280;51709;54.912;8.316;2023-01-26T17:26:22;102463.84;;;5.85;75.60
65131;BME280;51709;54.912;8.316;2023-01-26T17:31:43;102479.31;;;5.93;75.46
65131;BME280;51709;54.912;8.316;2023-01-26T17:37:03;102473.44;;;5.95;75.38
65131;BME280;51709;54.912;8.316;2023-01-26T17:42:24;102485.38;;;5.98;75.29
65131;BME280;51709;54.912;8.316;2023-01-26T17:47:45;102481.06;;;5.95;75.51
65131;BME280;51709;54.912;8.316;2023-01-26T17:53:06;102494.66;;;5.96;75.56
65131;BME280;51709;54.912;8.316;2023-01-26T17:58:26;102494.72;;;5.97;75.56
65131;BME280;51709;54.912;8.316;2023-01-26T18:03:47;102510.66;;;5.90;75.92
65131;BME280;51709;54.912;8.316;2023-01-26T18:09:08;102521.75;;;5.92;75.67
65131;BME280;51709;54.912;8.316;2023-01-26T18:14:28;102524.91;;;5.82;75.93
65131;BME280;51709;54.912;8.316;2023-01-26T18:19:49;102534.16;;;5.78;76.09
65131;BME280;51709;54.912;8.316;2023-01-26T18:25:10;102543.47;;;5.78;76.02
65131;BME280;51709;54.912;8.316;2023-01-26T18:30:31;102553.31;;;5.65;76.23
65131;BME280;51709;54.912;8.316;2023-01-26T18:35:52;102563.16;;;5.53;76.53
65131;BME280;51709;54.912;8.316;2023-01-26T18:41:22;102568.88;;;5.44;76.76
65131;BME280;51709;54.912;8.316;2023-01-26T18:46:43;102578.84;;;5.36;76.67
65131;BME280;51709;54.912;8.316;2023-01-26T18:52:03;102578.94;;;5.39;76.67
65131;BME280;51709;54.912;8.316;2023-01-26T18:57:24;102585.94;;;5.79;75.82
65131;BME280;51709;54.912;8.316;2023-01-26T19:02:44;102582.59;;;6.12;74.63
65131;BME280;51709;54.912;8.316;2023-01-26T19:08:05;102581.97;;;6.21;74.48
65131;BME280;51709;54.912;8.316;2023-01-26T19:13:33;102589.00;;;6.29;74.48
65131;BME280;51709;54.912;8.316;2023-01-26T19:18:54;102588.28;;;6.35;74.39
65131;BME280;51709;54.912;8.316;2023-01-26T19:24:18;102592.69;;;6.42;74.47
65131;BME280;51709;54.912;8.316;2023-01-26T19:29:38;102607.91;;;6.38;74.44
65131;BME280;51709;54.912;8.316;2023-01-26T19:34:59;102608.69;;;6.35;74.52
65131;BME280;51709;54.912;8.316;2023-01-26T19:40:21;102611.16;;;6.32;74.60
65131;BME280;51709;54.912;8.316;2023-01-26T19:45:49;102608.50;;;6.27;74.68
65131;BME280;51709;54.912;8.316;2023-01-26T19:51:14;102612.75;;;6.27;74.60
65131;BME280;51709;54.912;8.316;2023-01-26T19:56:35;102620.31;;;6.25;74.61
65131;BME280;51709;54.912;8.316;2023-01-26T20:01:56;102620.97;;;6.16;74.96
65131;BME280;51709;54.912;8.316;2023-01-26T20:07:17;102628.34;;;6.07;75.00
65131;BME280;51709;54.912;8.316;2023-01-26T20:12:37;102621.22;;;5.95;75.01
65131;BME280;51709;54.912;8.316;2023-01-26T20:17:58;102625.28;;;5.89;74.87
65131;BME280;51709;54.912;8.316;2023-01-26T20:23:19;102628.97;;;5.68;75.16
65131;BME280;51709;54.912;8.316;2023-01-26T20:28:40;102631.88;;;5.51;75.49
65131;BME280;51709;54.912;8.316;2023-01-26T20:34:01;102644.50;;;5.47;75.31
65131;BME280;51709;54.912;8.316;2023-01-26T20:39:22;102657.06;;;5.40;75.18
65131;BME280;51709;54.912;8.316;2023-01-26T20:44:44;102656.91;;;5.36;75.26
65131;BME280;51709;54.912;8.316;2023-01-26T20:50:07;102643.19;;;5.31;75.17
65131;BME280;51709;54.912;8.316;2023-01-26T20:55:27;102662.53;;;5.25;75.14
65131;BME280;51709;54.912;8.316;2023-01-26T21:00:48;102664.75;;;5.15;75.30
65131;BME280;51709;54.912;8.316;2023-01-26T21:06:12;102660.78;;;4.96;75.53
65131;BME280;51709;54.912;8.316;2023-01-26T21:11:33;102674.41;;;4.72;76.16
65131;BME280;51709;54.912;8.316;2023-01-26T21:16:54;102690.13;;;4.60;76.27
65131;BME280;51709;54.912;8.316;2023-01-26T21:22:15;102691.41;;;4.47;76.22
65131;BME280;51709;54.912;8.316;2023-01-26T21:27:36;102703.78;;;4.38;76.29
65131;BME280;51709;54.912;8.316;2023-01-26T21:32:57;102697.56;;;4.29;76.21
65131;BME280;51709;54.912;8.316;2023-01-26T21:38:17;102696.31;;;4.18;76.47
65131;BME280;51709;54.912;8.316;2023-01-26T21:43:38;102696.06;;;4.10;76.33
65131;BME280;51709;54.912;8.316;2023-01-26T21:49:00;102687.34;;;4.04;76.31
65131;BME280;51709;54.912;8.316;2023-01-26T21:54:20;102689.72;;;3.99;76.48
65131;BME280;51709;54.912;8.316;2023-01-26T21:59:41;102694.56;;;3.93;76.13
65131;BME280;51709;54.912;8.316;2023-01-26T22:05:02;102697.75;;;3.87;76.11
65131;BME280;51709;54.912;8.316;2023-01-26T22:10:22;102700.25;;;3.85;76.22
65131;BME280;51709;54.912;8.316;2023-01-26T22:15:43;102698.28;;;3.78;76.38
65131;BME280;51709;54.912;8.316;2023-01-26T22:21:05;102705.03;;;3.78;76.15
65131;BME280;51709;54.912;8.316;2023-01-26T22:26:26;102710.75;;;3.72;76.08
65131;BME280;51709;54.912;8.316;2023-01-26T22:31:46;102716.84;;;3.77;75.92
65131;BME280;51709;54.912;8.316;2023-01-26T22:37:07;102717.22;;;3.87;75.35
65131;BME280;51709;54.912;8.316;2023-01-26T22:42:27;102713.75;;;3.84;75.41
65131;BME280;51709;54.912;8.316;2023-01-26T22:47:48;102722.22;;;3.85;75.22
65131;BME280;51709;54.912;8.316;2023-01-26T22:53:09;102730.78;;;3.87;75.29
65131;BME280;51709;54.912;8.316;2023-01-26T22:58:32;102745.22;;;3.88;75.32
65131;BME280;51709;54.912;8.316;2023-01-26T23:03:54;102760.50;;;3.90;75.44
65131;BME280;51709;54.912;8.316;2023-01-26T23:09:15;102747.91;;;3.93;75.47
65131;BME280;51709;54.912;8.316;2023-01-26T23:14:35;102758.13;;;3.94;75.34
65131;BME280;51709;54.912;8.316;2023-01-26T23:19:56;102762.41;;;3.95;75.38
65131;BME280;51709;54.912;8.316;2023-01-26T23:25:16;102767.47;;;3.95;75.40
65131;BME280;51709;54.912;8.316;2023-01-26T23:30:57;102764.88;;;3.94;75.41
65131;BME280;51709;54.912;8.316;2023-01-26T23:36:20;102762.97;;;3.88;75.82
65131;BME280;51709;54.912;8.316;2023-01-26T23:41:41;102764.13;;;3.96;75.49
65131;BME280;51709;54.912;8.316;2023-01-26T23:47:01;102777.63;;;3.95;75.36
65131;BME280;51709;54.912;8.316;2023-01-26T23:52:22;102773.38;;;3.94;75.33
65131;BME280;51709;54.912;8.316;2023-01-26T23:57:43;102775.81;;;3.91;75.22
